createdAt,value
2022-08-29T00:00:31.123Z,19.57
2022-08-29T00:03:03.208Z,19.57
2022-08-29T00:05:40.111Z,19.58
2022-08-29T00:08:11.089Z,19.58
2022-08-29T00:10:39.140Z,19.62
2022-08-29T00:13:08.535Z,19.62
2022-08-29T00:15:41.665Z,19.67
2022-08-29T00:18:14.635Z,19.69
2022-08-29T00:20:42.532Z,19.78
2022-08-29T00:23:10.041Z,19.76
2022-08-29T00:25:37.578Z,19.69
2022-08-29T00:28:05.121Z,19.66
2022-08-29T00:30:33.360Z,19.64
2022-08-29T00:33:00.021Z,19.60
2022-08-29T00:35:32.077Z,19.71
2022-08-29T00:37:59.125Z,19.64
2022-08-29T00:40:34.777Z,19.74
2022-08-29T00:43:01.986Z,19.57
2022-08-29T00:45:29.569Z,19.44
2022-08-29T00:48:06.187Z,19.40
2022-08-29T00:50:39.006Z,19.27
2022-08-29T00:53:10.344Z,19.00
2022-08-29T00:55:39.041Z,18.85
2022-08-29T00:58:18.395Z,18.71
2022-08-29T01:00:46.236Z,18.65
2022-08-29T01:03:13.570Z,18.49
2022-08-29T01:05:41.457Z,18.37
2022-08-29T01:08:08.162Z,18.32
2022-08-29T01:10:57.522Z,18.37
2022-08-29T01:13:30.039Z,18.30
2022-08-29T01:15:58.206Z,18.19
2022-08-29T01:18:27.451Z,18.16
2022-08-29T01:21:15.474Z,18.17
2022-08-29T01:23:46.156Z,18.17
2022-08-29T01:26:13.297Z,18.10
2022-08-29T01:28:43.578Z,18.08
2022-08-29T01:31:15.535Z,17.97
2022-08-29T01:34:02.949Z,18.03
2022-08-29T01:37:04.030Z,18.04
2022-08-29T01:39:34.253Z,17.90
2022-08-29T01:42:05.854Z,17.71
2022-08-29T01:44:33.463Z,17.70
2022-08-29T01:47:07.329Z,17.74
2022-08-29T01:49:38.767Z,17.68
2022-08-29T01:52:08.644Z,17.62
2022-08-29T01:54:35.341Z,17.56
2022-08-29T01:57:02.054Z,17.52
2022-08-29T01:59:30.639Z,17.59
2022-08-29T02:02:08.451Z,17.61
2022-08-29T02:04:35.463Z,17.57
2022-08-29T02:07:07.320Z,17.48
2022-08-29T02:09:37.265Z,17.43
2022-08-29T02:12:07.063Z,17.21
2022-08-29T02:14:35.479Z,17.28
2022-08-29T02:17:07.204Z,17.33
2022-08-29T02:19:37.448Z,17.28
2022-08-29T02:22:05.369Z,17.16
2022-08-29T02:24:32.613Z,17.05
2022-08-29T02:26:59.368Z,17.01
2022-08-29T02:29:35.238Z,16.99
2022-08-29T02:32:11.867Z,17.01
2022-08-29T02:34:38.699Z,17.00
2022-08-29T02:37:06.040Z,16.96
2022-08-29T02:39:33.881Z,16.91
2022-08-29T02:42:00.881Z,16.93
2022-08-29T02:44:27.799Z,16.89
2022-08-29T02:46:54.535Z,16.92
2022-08-29T02:49:23.851Z,16.94
2022-08-29T02:51:50.448Z,16.93
2022-08-29T02:54:17.245Z,16.88
2022-08-29T02:56:43.852Z,16.88
2022-08-29T02:59:10.672Z,16.94
2022-08-29T03:01:39.071Z,16.82
2022-08-29T03:04:06.367Z,16.78
2022-08-29T03:06:33.509Z,16.76
2022-08-29T03:09:00.253Z,16.71
2022-08-29T03:11:28.606Z,16.75
2022-08-29T03:13:57.624Z,16.65
2022-08-29T03:16:25.734Z,16.65
2022-08-29T03:18:52.439Z,16.58
2022-08-29T03:21:22.038Z,16.58
2022-08-29T03:23:49.834Z,16.66
2022-08-29T03:26:17.472Z,16.67
2022-08-29T03:28:44.519Z,16.66
2022-08-29T03:31:11.378Z,16.73
2022-08-29T03:33:38.529Z,16.65
2022-08-29T03:36:08.806Z,16.65
2022-08-29T03:38:41.282Z,16.68
2022-08-29T03:41:08.940Z,16.63
2022-08-29T03:43:35.718Z,16.59
2022-08-29T03:46:02.346Z,16.54
2022-08-29T03:48:35.046Z,16.49
2022-08-29T03:51:02.503Z,16.40
2022-08-29T03:53:30.726Z,16.38
2022-08-29T03:55:58.043Z,16.44
2022-08-29T03:58:25.265Z,16.47
2022-08-29T04:00:52.045Z,16.45
2022-08-29T04:03:20.097Z,16.42
2022-08-29T04:05:49.113Z,16.51
2022-08-29T04:08:21.000Z,16.51
2022-08-29T04:10:47.702Z,16.46
2022-08-29T04:13:14.949Z,16.51
2022-08-29T04:15:42.795Z,16.50
2022-08-29T04:18:11.031Z,16.42
2022-08-29T04:20:40.123Z,16.48
2022-08-29T04:23:07.583Z,16.52
2022-08-29T04:25:37.954Z,16.56
2022-08-29T04:28:07.022Z,16.34
2022-08-29T04:30:34.939Z,16.49
2022-08-29T04:33:01.652Z,16.42
2022-08-29T04:35:29.841Z,16.52
2022-08-29T04:37:57.054Z,16.42
2022-08-29T04:40:23.784Z,16.39
2022-08-29T04:42:50.794Z,16.46
2022-08-29T04:45:20.974Z,16.28
2022-08-29T04:47:47.868Z,16.25
2022-08-29T04:50:20.747Z,16.32
2022-08-29T04:52:49.422Z,16.38
2022-08-29T04:55:21.488Z,16.31
2022-08-29T04:57:50.466Z,16.35
2022-08-29T05:00:23.281Z,16.41
2022-08-29T05:02:50.023Z,16.38
2022-08-29T05:05:17.081Z,16.44
2022-08-29T05:07:46.317Z,16.49
2022-08-29T05:10:17.279Z,16.46
2022-08-29T05:12:45.161Z,16.31
2022-08-29T05:15:13.299Z,16.25
2022-08-29T05:17:40.336Z,16.25
2022-08-29T05:20:08.523Z,16.24
2022-08-29T05:22:36.301Z,16.26
2022-08-29T05:25:04.918Z,16.24
2022-08-29T05:27:31.928Z,16.21
2022-08-29T05:29:58.577Z,16.36
2022-08-29T05:32:25.459Z,16.24
2022-08-29T05:34:52.120Z,16.24
2022-08-29T05:37:20.875Z,16.21
2022-08-29T05:39:48.651Z,16.13
2022-08-29T05:42:17.694Z,16.15
2022-08-29T05:44:44.532Z,16.17
2022-08-29T05:47:15.272Z,16.11
2022-08-29T05:49:46.077Z,16.20
2022-08-29T05:52:15.622Z,16.21
2022-08-29T05:54:44.057Z,16.18
2022-08-29T05:57:18.990Z,16.17
2022-08-29T05:59:52.093Z,16.15
2022-08-29T06:02:20.478Z,16.15
2022-08-29T06:04:49.866Z,16.19
2022-08-29T06:07:17.119Z,16.15
2022-08-29T06:09:44.964Z,16.22
2022-08-29T06:12:13.832Z,16.37
2022-08-29T06:14:41.440Z,16.52
2022-08-29T06:17:16.985Z,16.46
2022-08-29T06:19:43.869Z,16.39
2022-08-29T06:22:11.422Z,16.23
2022-08-29T06:24:44.559Z,16.35
2022-08-29T06:27:12.439Z,16.29
2022-08-29T06:29:43.396Z,16.33
2022-08-29T06:32:11.570Z,16.37
2022-08-29T06:34:38.286Z,16.38
2022-08-29T06:37:04.872Z,16.24
2022-08-29T06:39:31.790Z,16.19
2022-08-29T06:41:58.406Z,16.22
2022-08-29T06:44:26.537Z,16.22
2022-08-29T06:46:58.227Z,16.21
2022-08-29T06:49:25.796Z,16.33
2022-08-29T06:51:56.942Z,16.29
2022-08-29T06:54:27.940Z,16.31
2022-08-29T06:56:56.477Z,16.41
2022-08-29T06:59:23.078Z,16.35
2022-08-29T07:01:50.079Z,16.31
2022-08-29T07:04:16.924Z,16.20
2022-08-29T07:06:50.799Z,16.26
2022-08-29T07:09:17.714Z,16.23
2022-08-29T07:11:44.549Z,16.21
2022-08-29T07:14:12.344Z,16.25
2022-08-29T07:16:40.299Z,16.31
2022-08-29T07:19:09.041Z,16.33
2022-08-29T07:21:36.105Z,16.34
2022-08-29T07:24:04.890Z,16.30
2022-08-29T07:26:41.398Z,16.27
2022-08-29T07:29:14.994Z,16.30
2022-08-29T07:31:41.964Z,16.29
2022-08-29T07:34:09.305Z,16.30
2022-08-29T07:36:38.912Z,16.17
2022-08-29T07:39:08.310Z,16.21
2022-08-29T07:41:35.377Z,16.10
2022-08-29T07:44:02.089Z,16.01
2022-08-29T07:46:29.305Z,16.03
2022-08-29T07:48:58.097Z,16.04
2022-08-29T07:51:25.419Z,16.11
2022-08-29T07:53:52.785Z,16.28
2022-08-29T07:56:23.161Z,16.46
2022-08-29T07:58:51.855Z,16.68
2022-08-29T08:01:21.390Z,16.63
2022-08-29T08:03:50.651Z,16.58
2022-08-29T08:06:22.402Z,16.47
2022-08-29T08:08:49.973Z,16.45
2022-08-29T08:11:17.869Z,16.49
2022-08-29T08:13:44.644Z,16.43
2022-08-29T08:16:15.287Z,16.34
2022-08-29T08:18:43.657Z,16.25
2022-08-29T08:21:11.376Z,16.21
2022-08-29T08:23:38.573Z,16.35
2022-08-29T08:26:06.312Z,16.45
2022-08-29T08:28:33.231Z,16.42
2022-08-29T08:31:05.918Z,16.35
2022-08-29T08:33:35.478Z,16.46
2022-08-29T08:36:06.207Z,16.54
2022-08-29T08:38:32.854Z,16.49
2022-08-29T08:41:10.760Z,16.48
2022-08-29T08:43:50.377Z,16.72
2022-08-29T08:46:19.667Z,16.84
2022-08-29T08:48:48.319Z,16.71
2022-08-29T08:51:21.702Z,16.69
2022-08-29T08:53:56.547Z,16.87
2022-08-29T08:56:33.204Z,17.06
2022-08-29T08:59:26.273Z,17.22
2022-08-29T09:02:07.536Z,17.34
2022-08-29T09:04:56.660Z,17.60
2022-08-29T09:07:50.770Z,17.58
2022-08-29T09:10:47.551Z,17.55
2022-08-29T09:13:31.930Z,17.52
2022-08-29T09:16:01.282Z,17.64
2022-08-29T09:18:36.246Z,17.63
2022-08-29T09:21:39.354Z,17.41
2022-08-29T09:24:06.161Z,17.22
2022-08-29T09:26:32.976Z,17.17
2022-08-29T09:28:59.585Z,17.12
2022-08-29T09:31:35.533Z,17.12
2022-08-29T09:34:12.763Z,17.28
2022-08-29T09:36:47.701Z,17.40
2022-08-29T09:39:20.490Z,17.61
2022-08-29T09:41:54.697Z,17.64
2022-08-29T09:44:30.805Z,17.65
2022-08-29T09:47:21.951Z,17.51
2022-08-29T09:50:07.329Z,17.39
2022-08-29T09:52:35.389Z,17.33
2022-08-29T09:55:24.791Z,17.46
2022-08-29T09:58:03.846Z,17.30
2022-08-29T10:00:40.602Z,17.26
2022-08-29T10:03:10.754Z,17.24
2022-08-29T10:05:45.270Z,17.24
2022-08-29T10:08:35.187Z,17.18
2022-08-29T10:11:19.974Z,17.17
2022-08-29T10:13:54.889Z,17.25
2022-08-29T10:16:27.778Z,17.40
2022-08-29T10:19:04.429Z,17.43
2022-08-29T10:21:49.188Z,17.45
2022-08-29T10:24:32.974Z,17.64
2022-08-29T10:27:28.496Z,17.88
2022-08-29T10:30:00.812Z,17.90
2022-08-29T10:33:04.513Z,17.86
2022-08-29T10:36:00.988Z,17.86
2022-08-29T10:38:36.971Z,17.92
2022-08-29T10:41:21.701Z,17.91
2022-08-29T10:44:09.167Z,17.82
2022-08-29T10:47:02.685Z,17.82
2022-08-29T10:49:48.179Z,17.92
2022-08-29T10:52:29.948Z,18.04
2022-08-29T10:54:59.498Z,18.19
2022-08-29T10:57:47.308Z,18.14
2022-08-29T11:00:24.439Z,18.11
2022-08-29T11:03:50.871Z,18.22
2022-08-29T11:06:43.505Z,18.24
2022-08-29T11:09:25.460Z,18.43
2022-08-29T11:12:17.578Z,18.45
2022-08-29T11:15:02.946Z,18.43
2022-08-29T11:17:34.831Z,18.61
2022-08-29T11:20:13.714Z,18.44
2022-08-29T11:22:43.956Z,18.35
2022-08-29T11:25:20.963Z,18.36
2022-08-29T11:28:06.430Z,18.66
2022-08-29T11:31:00.278Z,18.74
2022-08-29T11:33:49.043Z,18.90
2022-08-29T11:36:28.014Z,19.13
2022-08-29T11:39:10.009Z,19.03
2022-08-29T11:41:46.811Z,18.96
2022-08-29T11:44:29.609Z,19.13
2022-08-29T11:46:57.731Z,19.48
2022-08-29T11:49:30.506Z,19.66
2022-08-29T11:52:13.457Z,19.56
2022-08-29T11:54:43.194Z,19.42
2022-08-29T11:57:12.209Z,19.14
2022-08-29T11:59:50.915Z,19.01
2022-08-29T12:02:32.810Z,19.26
2022-08-29T12:05:01.037Z,19.62
2022-08-29T12:07:40.705Z,19.48
2022-08-29T12:10:29.405Z,19.53
2022-08-29T12:13:06.440Z,19.62
2022-08-29T12:15:33.151Z,19.60
2022-08-29T12:18:03.805Z,19.55
2022-08-29T12:20:30.794Z,19.33
2022-08-29T12:23:03.850Z,19.21
2022-08-29T12:25:44.661Z,19.46
2022-08-29T12:28:20.974Z,19.62
2022-08-29T12:31:08.350Z,19.63
2022-08-29T12:34:01.207Z,19.73
2022-08-29T12:36:36.581Z,20.02
2022-08-29T12:39:29.364Z,19.98
2022-08-29T12:42:09.095Z,19.89
2022-08-29T12:44:38.314Z,19.81
2022-08-29T12:47:14.226Z,20.05
2022-08-29T12:49:51.747Z,20.19
2022-08-29T12:52:21.137Z,20.57
2022-08-29T12:54:48.194Z,20.75
2022-08-29T12:57:33.015Z,20.50
2022-08-29T13:00:02.095Z,20.25
2022-08-29T13:02:32.557Z,20.30
2022-08-29T13:05:00.283Z,20.20
2022-08-29T13:07:28.717Z,19.99
2022-08-29T13:09:59.019Z,19.75
2022-08-29T13:12:27.176Z,19.92
2022-08-29T13:14:56.059Z,19.95
2022-08-29T13:17:34.340Z,19.90
2022-08-29T13:20:38.692Z,20.05
2022-08-29T13:23:10.351Z,20.07
2022-08-29T13:25:44.052Z,20.04
2022-08-29T13:28:23.655Z,20.05
2022-08-29T13:31:29.687Z,20.17
2022-08-29T13:33:56.575Z,20.22
2022-08-29T13:36:40.871Z,20.00
2022-08-29T13:39:25.060Z,19.97
2022-08-29T13:41:57.573Z,20.10
2022-08-29T13:44:27.189Z,20.20
2022-08-29T13:47:01.204Z,20.02
2022-08-29T13:49:32.300Z,20.00
2022-08-29T13:52:00.762Z,20.08
2022-08-29T13:54:35.713Z,20.19
2022-08-29T13:57:07.895Z,20.17
2022-08-29T13:59:36.790Z,20.05
2022-08-29T14:02:11.513Z,20.03
2022-08-29T14:04:40.620Z,20.05
2022-08-29T14:07:12.041Z,19.98
2022-08-29T14:09:42.973Z,20.10
2022-08-29T14:12:14.041Z,20.05
2022-08-29T14:14:41.989Z,20.22
2022-08-29T14:17:09.018Z,20.36
2022-08-29T14:19:39.398Z,20.40
2022-08-29T14:22:06.216Z,20.46
2022-08-29T14:24:33.905Z,20.63
2022-08-29T14:27:02.699Z,20.61
2022-08-29T14:29:34.023Z,20.49
2022-08-29T14:32:03.194Z,20.34
2022-08-29T14:34:32.808Z,20.18
2022-08-29T14:37:01.122Z,20.12
2022-08-29T14:39:28.774Z,20.15
2022-08-29T14:41:59.475Z,19.99
2022-08-29T14:44:27.321Z,20.01
2022-08-29T14:46:54.106Z,19.99
2022-08-29T14:49:20.805Z,19.96
2022-08-29T14:51:47.586Z,19.98
2022-08-29T14:54:15.196Z,20.12
2022-08-29T14:56:50.611Z,20.03
2022-08-29T14:59:22.468Z,20.24
2022-08-29T15:01:54.333Z,20.16
2022-08-29T15:04:36.336Z,20.06
2022-08-29T15:07:11.696Z,20.09
2022-08-29T15:09:41.633Z,20.03
2022-08-29T15:12:11.506Z,20.06
2022-08-29T15:14:39.571Z,20.23
2022-08-29T15:17:06.504Z,20.28
2022-08-29T15:22:22.702Z,20.54
2022-08-29T15:24:50.782Z,20.45
2022-08-29T15:27:21.571Z,20.42
2022-08-29T15:29:50.517Z,20.13
2022-08-29T15:32:19.587Z,20.06
2022-08-29T15:34:49.311Z,19.91
2022-08-29T15:37:16.669Z,19.71
2022-08-29T15:39:43.519Z,19.69
2022-08-29T15:42:11.794Z,19.57
2022-08-29T15:44:44.089Z,19.40
2022-08-29T15:47:11.458Z,19.33
2022-08-29T15:49:39.484Z,19.32
2022-08-29T15:52:13.794Z,19.21
2022-08-29T15:54:40.815Z,19.18
2022-08-29T15:57:08.053Z,19.15
2022-08-29T15:59:57.112Z,19.18
2022-08-29T16:02:29.605Z,19.30
2022-08-29T16:04:58.974Z,19.28
2022-08-29T16:07:29.243Z,19.25
2022-08-29T16:10:01.057Z,19.28
2022-08-29T16:12:32.488Z,19.31
2022-08-29T16:15:01.052Z,19.48
2022-08-29T16:17:31.492Z,19.64
2022-08-29T16:20:00.428Z,19.67
2022-08-29T16:22:28.355Z,19.79
2022-08-29T16:24:55.060Z,19.72
2022-08-29T16:27:24.953Z,19.87
2022-08-29T16:29:53.202Z,19.92
2022-08-29T16:32:20.722Z,19.92
2022-08-29T16:34:47.354Z,19.95
2022-08-29T16:37:14.592Z,19.87
2022-08-29T16:39:41.305Z,19.67
2022-08-29T16:42:08.092Z,19.66
2022-08-29T16:44:34.840Z,19.63
2022-08-29T16:47:04.897Z,19.57
2022-08-29T16:49:31.685Z,19.47
2022-08-29T16:52:01.096Z,19.33
2022-08-29T16:54:28.516Z,19.24
2022-08-29T16:56:59.230Z,19.27
2022-08-29T16:59:37.106Z,19.19
2022-08-29T17:02:04.973Z,19.11
2022-08-29T17:04:31.717Z,19.10
2022-08-29T17:07:02.408Z,19.12
2022-08-29T17:09:30.638Z,19.06
2022-08-29T17:12:02.169Z,19.02
2022-08-29T17:14:30.372Z,19.17
2022-08-29T17:16:57.230Z,19.29
2022-08-29T17:19:24.908Z,19.40
2022-08-29T17:21:52.017Z,19.34
2022-08-29T17:24:18.949Z,19.35
2022-08-29T17:26:48.911Z,19.26
2022-08-29T17:29:18.463Z,19.26
2022-08-29T17:31:45.901Z,19.14
2022-08-29T17:34:12.860Z,19.08
2022-08-29T17:36:41.798Z,19.12
2022-08-29T17:39:08.954Z,19.09
2022-08-29T17:41:39.728Z,19.02
2022-08-29T17:44:09.957Z,18.97
2022-08-29T17:46:36.789Z,18.95
2022-08-29T17:49:07.871Z,18.94
2022-08-29T17:51:37.402Z,18.94
2022-08-29T17:54:10.368Z,19.10
2022-08-29T17:56:58.199Z,19.21
2022-08-29T17:59:28.756Z,19.08
2022-08-29T18:01:56.279Z,19.01
2022-08-29T18:04:31.973Z,18.99
2022-08-29T18:06:58.793Z,19.04
2022-08-29T18:09:25.858Z,18.95
2022-08-29T18:11:53.442Z,18.95
2022-08-29T18:14:23.745Z,18.94
2022-08-29T18:16:52.280Z,18.97
2022-08-29T18:19:22.023Z,18.98
2022-08-29T18:21:50.346Z,18.96
2022-08-29T18:24:17.772Z,19.06
2022-08-29T18:26:46.587Z,19.03
2022-08-29T18:29:13.385Z,19.03
2022-08-29T18:31:41.806Z,19.02
2022-08-29T18:34:12.827Z,18.98
2022-08-29T18:36:46.242Z,18.88
2022-08-29T18:39:15.195Z,18.89
2022-08-29T18:41:42.028Z,18.88
2022-08-29T18:44:11.934Z,18.82
2022-08-29T18:46:42.356Z,18.84
2022-08-29T18:49:17.373Z,18.85
2022-08-29T18:51:43.983Z,18.98
2022-08-29T18:54:10.606Z,18.97
2022-08-29T18:56:42.379Z,18.99
2022-08-29T18:59:09.098Z,18.95
2022-08-29T19:01:38.668Z,18.87
2022-08-29T19:04:06.512Z,18.86
2022-08-29T19:06:33.133Z,18.79
2022-08-29T19:09:00.100Z,18.88
2022-08-29T19:11:28.253Z,18.91
2022-08-29T19:13:55.092Z,18.99
2022-08-29T19:16:23.779Z,18.90
2022-08-29T19:18:51.452Z,18.84
2022-08-29T19:21:18.780Z,18.71
2022-08-29T19:23:52.706Z,18.56
2022-08-29T19:26:28.384Z,18.52
2022-08-29T19:29:01.313Z,18.49
2022-08-29T19:31:29.072Z,18.43
2022-08-29T19:33:56.457Z,18.31
2022-08-29T19:36:24.447Z,18.27
2022-08-29T19:38:52.522Z,18.21
2022-08-29T19:41:19.905Z,18.11
2022-08-29T19:43:46.633Z,18.05
2022-08-29T19:46:18.110Z,18.01
2022-08-29T19:48:48.685Z,18.02
2022-08-29T19:51:19.894Z,17.97
2022-08-29T19:53:48.451Z,17.97
2022-08-29T19:56:15.214Z,17.94
2022-08-29T19:58:42.867Z,17.98
2022-08-29T20:01:11.659Z,17.95
2022-08-29T20:03:40.608Z,17.82
2022-08-29T20:06:08.559Z,17.78
2022-08-29T20:08:41.798Z,17.69
2022-08-29T20:11:13.732Z,17.69
2022-08-29T20:13:41.036Z,17.65
2022-08-29T20:16:13.930Z,17.57
2022-08-29T20:18:42.590Z,17.50
2022-08-29T20:21:10.990Z,17.39
2022-08-29T20:23:38.576Z,17.37
2022-08-29T20:26:15.441Z,17.35
2022-08-29T20:28:42.401Z,17.33
2022-08-29T20:31:09.666Z,17.26
2022-08-29T20:33:39.711Z,17.18
2022-08-29T20:36:26.598Z,17.13
2022-08-29T20:38:54.338Z,17.12
2022-08-29T20:41:21.906Z,17.12
2022-08-29T20:43:49.040Z,16.97
2022-08-29T20:46:15.747Z,17.04
2022-08-29T20:48:42.565Z,17.09
2022-08-29T20:51:10.229Z,17.02
2022-08-29T20:53:42.871Z,17.00
2022-08-29T20:56:09.801Z,16.93
2022-08-29T20:58:38.708Z,17.01
2022-08-29T21:01:05.784Z,16.97
2022-08-29T21:03:57.510Z,16.84
2022-08-29T21:06:24.927Z,16.89
2022-08-29T21:08:53.822Z,16.91
2022-08-29T21:11:21.008Z,16.92
2022-08-29T21:13:53.351Z,16.91
2022-08-29T21:16:20.653Z,16.90
2022-08-29T21:18:53.208Z,16.83
2022-08-29T21:21:24.477Z,16.75
2022-08-29T21:23:55.805Z,16.59
2022-08-29T21:26:23.796Z,16.69
2022-08-29T21:28:51.908Z,16.63
2022-08-29T21:31:24.799Z,16.52
2022-08-29T21:33:51.640Z,16.46
2022-08-29T21:36:22.954Z,16.42
2022-08-29T21:38:54.157Z,16.34
2022-08-29T21:41:22.105Z,16.33
2022-08-29T21:43:48.841Z,16.29
2022-08-29T21:46:18.425Z,16.25
2022-08-29T21:48:45.835Z,16.11
2022-08-29T21:51:14.096Z,16.01
2022-08-29T21:53:42.513Z,15.91
2022-08-29T21:56:09.168Z,15.92
2022-08-29T21:58:37.113Z,15.88
2022-08-29T22:01:04.879Z,15.92
2022-08-29T22:03:31.562Z,15.90
2022-08-29T22:05:58.238Z,15.92
2022-08-29T22:08:25.765Z,15.92
2022-08-29T22:10:52.378Z,15.84
2022-08-29T22:13:19.084Z,15.83
2022-08-29T22:16:04.532Z,15.75
2022-08-29T22:18:31.377Z,15.79
2022-08-29T22:21:00.468Z,15.74
2022-08-29T22:23:27.267Z,15.73
2022-08-29T22:25:54.073Z,15.60
2022-08-29T22:28:21.255Z,15.64
2022-08-29T22:30:48.799Z,15.59
2022-08-29T22:33:16.372Z,15.61
2022-08-29T22:35:44.075Z,15.56
2022-08-29T22:38:10.913Z,15.54
2022-08-29T22:40:37.696Z,15.46
2022-08-29T22:43:04.435Z,15.48
2022-08-29T22:45:32.227Z,15.45
2022-08-29T22:47:58.959Z,15.45
2022-08-29T22:50:26.330Z,15.43
2022-08-29T22:52:57.084Z,15.37
2022-08-29T22:57:49.711Z,15.33
2022-08-29T23:00:19.661Z,15.31
2022-08-29T23:02:46.912Z,15.26
2022-08-29T23:05:13.892Z,15.25
2022-08-29T23:07:40.931Z,15.21
2022-08-29T23:10:10.071Z,15.16
2022-08-29T23:12:37.510Z,15.10
2022-08-29T23:15:08.144Z,15.14
2022-08-29T23:17:34.968Z,15.05
2022-08-29T23:20:02.055Z,15.13
2022-08-29T23:22:28.954Z,15.13
2022-08-29T23:24:58.375Z,15.15
2022-08-29T23:27:29.880Z,15.20
2022-08-29T23:29:57.410Z,15.17
2022-08-29T23:32:24.156Z,15.09
2022-08-29T23:34:52.130Z,15.07
2022-08-29T23:37:18.776Z,15.03
2022-08-29T23:39:46.725Z,15.05
2022-08-29T23:42:13.398Z,15.02
2022-08-29T23:44:40.017Z,14.99
2022-08-29T23:47:08.495Z,14.98
2022-08-29T23:49:35.557Z,14.95
2022-08-29T23:52:03.132Z,14.88
2022-08-29T23:54:31.423Z,14.81
2022-08-29T23:56:58.214Z,14.67
2022-08-29T23:59:43.548Z,14.67
